map of TAM home
TAM - Airport
Location
City:  Tampico, Tamaulipas, México
Name:General Francisco Javier Mina International Airport
ICAO:MMTM
IATA:TAM

Details
Type:Airport (Aerodrome, Airfield)
Use:Public/Civil, International (customs port of entry)
Latitude:22°17'47"N (22.296450)
Longitude:97°51'57"W (-97.865930)
Datum:WGS 1984
Elevation:80 ft (24 m)
Variation:3.90°E (WMM2015v2 magnetic declination)
-0.11° annual change
Runways:3
Longest:8366 × 148 ft (2550 × 45 m), paved

Time
Time Zone:UTC-6 (DST-5)
Local Time:

Weather
METAR:MMTM 041343Z 00000KT 4SM SCT020 BKN200 21/21 A2989 RMK 8/108 BR
TAF:MMTM 040507Z 0406/0506 00000KT 4SM BR HZ SCT010
TEMPO 0410/0414 2SM BR OVC008
FM041600 13010KT P6SM SCT015 SCT250
FM050200 13005KT 5SM HZ SCT015

Related Locations
Nearby:
Farthest:CCK: 11249 mi / 18104 km
West Island (Pulau Panjang) [Cocos (Keeling) Islands], CC

Find:

   beyond  
but within

Other Information
Maps:
NOTAMs:
Links:
Sources:

  
  • flag of México
  • flag of Tamaulipas
  

Sectional Chart

Flight Planning
at skyvector.com

Satellite Image

Google Maps Satellite view

 

Copyright © 2004-2019 Karl L. Swartz. All rights reserved.
The Great Circle Mapper name and logo are trademarks of the Great Circle Mapper.
All other trademarks mentioned herein belong to their respective owners.
Please see credits for attibutions and further copyright information.

  Follow gcmap on Facebook Follow gcmap on Twitter GCmap on LinkedIn

hCard Microformat

Geo Microformat